.
WxDataArchive / Data Records for 2015-03-06
2015-03-05 March 2015 2015-03-07

Data Records for Friday, 06 March 2015

Time	Temp	Chill	HIndex	Humid	Dewpt	 Wind 	HiWind	WindDir	Rain 	Barom
-----	----	-----	------	-----	-----	------	------	-------	-----	-----
00:00	7.7	7.7	7.7	71	0.3	0	0	---	0.00	30.565 
00:05	7.6	7.6	7.6	71	0.2	0	0	---	0.00	30.565 
00:10	7.2	7.2	7.2	72	0.1	0	0	---	0.00	30.565 
00:15	7.0	7.0	7.0	72	-0.1	0	0	---	0.00	30.561 
00:20	6.9	6.9	6.9	73	0.1	0	0	---	0.00	30.561 
00:25	6.7	6.7	6.7	74	0.2	0	0	---	0.00	30.561 
00:30	6.7	6.7	6.7	74	0.2	0	0	---	0.00	30.567 
00:35	6.5	6.5	6.5	75	0.3	0	0	---	0.00	30.567 
00:40	6.5	6.5	6.5	75	0.3	0	0	---	0.00	30.567 
00:45	6.3	6.3	6.3	75	0.1	0	0	---	0.00	30.572 
00:50	6.1	6.1	6.1	75	-0.1	0	0	---	0.00	30.572 
00:55	6.0	6.0	6.0	75	-0.2	0	0	---	0.00	30.572 
01:00	5.6	5.6	5.6	76	-0.3	0	0	---	0.00	30.568 
01:05	5.4	5.4	5.4	76	-0.5	0	0	---	0.00	30.568 
01:10	5.2	5.2	5.2	76	-0.7	0	0	---	0.00	30.568 
01:15	5.2	5.2	5.2	77	-0.4	0	0	---	0.00	30.568 
01:20	5.2	5.2	5.2	77	-0.4	0	0	---	0.00	30.568 
01:25	5.0	5.0	5.0	77	-0.6	0	0	---	0.00	30.568 
01:30	5.0	5.0	5.0	77	-0.6	0	0	---	0.00	30.568 
01:35	5.0	5.0	5.0	78	-0.3	0	0	---	0.00	30.568 
01:40	5.0	5.0	5.0	78	-0.3	0	0	---	0.00	30.568 
01:45	4.8	4.8	4.8	78	-0.5	0	0	---	0.00	30.568 
01:50	4.7	4.7	4.7	78	-0.6	0	0	---	0.00	30.568 
01:55	4.7	4.7	4.7	79	-0.4	0	0	---	0.00	30.568 
02:00	4.7	4.7	4.7	79	-0.4	0	0	---	0.00	30.568 
02:05	4.5	4.5	4.5	79	-0.5	0	0	---	0.00	30.568 
02:10	4.5	4.5	4.5	79	-0.5	0	0	---	0.00	30.568 
02:15	4.3	4.3	4.3	79	-0.7	0	0	---	0.00	30.571 
02:20	4.3	4.3	4.3	79	-0.7	0	0	---	0.00	30.571 
02:25	4.3	4.3	4.3	79	-0.7	0	0	---	0.00	30.571 
02:30	4.3	4.3	4.3	79	-0.7	0	0	---	0.00	30.570 
02:35	4.3	4.3	4.3	80	-0.5	0	0	---	0.00	30.570 
02:40	4.3	4.3	4.3	80	-0.5	0	0	---	0.00	30.570 
02:45	4.3	4.3	4.3	80	-0.5	0	0	---	0.00	30.572 
02:50	4.1	4.1	4.1	80	-0.7	0	0	---	0.00	30.572 
02:55	3.9	3.9	3.9	80	-0.9	0	0	---	0.00	30.572 
03:00	3.9	3.9	3.9	80	-0.9	0	0	---	0.00	30.570 
03:05	3.9	3.9	3.9	80	-0.9	0	0	---	0.00	30.570 
03:10	3.7	3.7	3.7	80	-1.1	0	0	---	0.00	30.570 
03:15	3.7	3.7	3.7	80	-1.1	0	0	---	0.00	30.564 
03:20	3.7	3.7	3.7	81	-0.8	0	0	---	0.00	30.564 
03:25	3.9	3.9	3.9	81	-0.6	0	0	---	0.00	30.564 
03:30	4.1	4.1	4.1	81	-0.4	0	0	---	0.00	30.564 
03:35	3.9	3.9	3.9	81	-0.6	0	0	---	0.00	30.564 
03:40	3.9	3.9	3.9	81	-0.6	0	0	---	0.00	30.564 
03:45	3.7	3.7	3.7	81	-0.8	0	0	---	0.00	30.553 
03:50	3.7	3.7	3.7	81	-0.8	0	0	---	0.00	30.553 
03:55	3.5	3.5	3.5	80	-1.3	0	0	---	0.00	30.553 
04:00	3.4	3.4	3.4	80	-1.4	0	0	---	0.00	30.554 
04:05	3.2	3.2	3.2	81	-1.3	0	0	---	0.00	30.554 
04:10	3.2	3.2	3.2	81	-1.3	0	0	---	0.00	30.554 
04:15	3.0	3.0	3.0	81	-1.5	0	0	---	0.00	30.553 
04:20	2.8	2.8	2.8	80	-1.9	0	0	---	0.00	30.553 
04:25	2.8	2.8	2.8	80	-1.9	0	0	---	0.00	30.553 
04:30	2.6	2.6	2.6	80	-2.1	0	0	---	0.00	30.551 
04:35	2.4	2.4	2.4	80	-2.3	0	0	---	0.00	30.551 
04:40	2.4	2.4	2.4	80	-2.3	0	0	---	0.00	30.551 
04:45	2.4	2.4	2.4	81	-2.1	0	0	---	0.00	30.555 
04:50	2.2	2.2	2.2	80	-2.5	0	0	---	0.00	30.555 
04:55	2.0	2.0	2.0	80	-2.7	0	0	---	0.00	30.555 
05:00	2.0	2.0	2.0	80	-2.7	0	0	---	0.00	30.559 
05:05	2.0	2.0	2.0	81	-2.5	0	0	---	0.00	30.559 
05:10	2.0	2.0	2.0	81	-2.5	0	0	---	0.00	30.559 
05:15	2.0	2.0	2.0	81	-2.5	0	0	---	0.00	30.557 
05:20	2.0	2.0	2.0	81	-2.5	0	0	---	0.00	30.557 
05:25	2.2	2.2	2.2	81	-2.3	0	0	---	0.00	30.557 
05:30	2.2	2.2	2.2	81	-2.3	0	0	---	0.00	30.561 
05:35	2.2	2.2	2.2	81	-2.3	0	0	---	0.00	30.561 
05:40	2.0	2.0	2.0	81	-2.5	0	0	---	0.00	30.561 
05:45	2.0	2.0	2.0	81	-2.5	0	0	---	0.00	30.558 
05:50	2.0	2.0	2.0	81	-2.5	0	0	---	0.00	30.558 
05:55	1.8	1.8	1.8	81	-2.7	0	0	---	0.00	30.558 
06:00	1.8	1.8	1.8	81	-2.7	0	0	---	0.00	30.558 
06:05	1.7	1.7	1.7	81	-2.8	0	0	---	0.00	30.558 
06:10	1.5	1.5	1.5	81	-3.0	0	0	---	0.00	30.558 
06:15	1.3	1.3	1.3	81	-3.1	0	0	---	0.00	30.557 
06:20	1.3	1.3	1.3	80	-3.4	0	0	---	0.00	30.557 
06:25	1.1	1.1	1.1	81	-3.3	0	0	---	0.00	30.557 
06:30	1.1	1.1	1.1	80	-3.6	0	0	---	0.00	30.556 
06:35	1.1	1.1	1.1	80	-3.6	0	0	---	0.00	30.556 
06:40	1.1	1.1	1.1	80	-3.6	0	0	---	0.00	30.556 
06:45	1.1	1.1	1.1	80	-3.6	0	0	---	0.00	30.551 
06:50	1.1	1.1	1.1	80	-3.6	0	0	---	0.00	30.551 
06:55	1.1	1.1	1.1	80	-3.6	0	0	---	0.00	30.551 
07:00	1.1	1.1	1.1	80	-3.6	0	0	---	0.00	30.559 
07:05	1.1	1.1	1.1	81	-3.3	0	0	---	0.00	30.559 
07:10	1.1	1.1	1.1	80	-3.6	0	0	---	0.00	30.559 
07:15	1.1	1.1	1.1	80	-3.6	0	0	---	0.00	30.560 
07:20	1.1	1.1	1.1	81	-3.3	0	0	---	0.00	30.560 
07:25	1.3	1.3	1.3	81	-3.1	0	0	---	0.00	30.560 
07:30	1.3	1.3	1.3	81	-3.1	0	0	---	0.00	30.557 
07:35	1.7	1.7	1.7	81	-2.8	0	0	---	0.00	30.557 
07:40	2.4	2.4	2.4	82	-1.8	0	0	---	0.00	30.557 
07:45	3.2	3.2	3.2	82	-1.0	0	0	---	0.00	30.556 
07:50	3.7	3.7	3.7	82	-0.5	0	0	---	0.00	30.556 
07:55	4.3	4.3	4.3	81	-0.2	0	0	---	0.00	30.556 
08:00	4.5	4.5	4.5	81	-0.0	0	1	315	0.00	30.552 
08:05	4.8	4.8	4.8	81	0.3	0	1	---	0.00	30.552 
08:10	5.2	5.2	5.2	80	0.4	0	1	315	0.00	30.552 
08:15	5.6	5.6	5.6	79	0.5	0	1	292	0.00	30.560 
08:20	6.0	6.0	6.0	79	0.9	0	1	292	0.00	30.560 
08:25	6.3	6.3	6.3	78	0.9	0	1	292	0.00	30.560 
08:30	6.7	6.7	6.7	77	1.0	0	1	315	0.00	30.559 
08:35	6.9	6.9	6.9	77	1.2	0	1	315	0.00	30.559 
08:40	7.2	7.2	7.2	75	1.0	0	1	315	0.00	30.559 
08:45	7.6	7.6	7.6	75	1.4	0	1	315	0.00	30.556 
08:50	8.1	8.1	8.1	74	1.6	0	1	315	0.00	30.556 
08:55	8.6	8.6	8.6	72	1.5	0	2	315	0.00	30.556 
09:00	9.2	9.2	9.2	71	1.7	0	1	315	0.00	30.556 
09:05	9.9	9.9	9.9	70	2.1	0	2	315	0.00	30.556 
09:10	10.4	10.4	10.4	68	2.0	0	1	315	0.00	30.556 
09:15	10.7	10.7	10.7	67	1.9	0	2	292	0.00	30.556 
09:20	11.2	11.2	11.2	66	2.1	0	1	292	0.00	30.556 
09:25	12.1	12.1	12.1	63	2.0	0	2	315	0.00	30.556 
09:30	12.8	12.8	12.8	62	2.3	0	2	292	0.00	30.554 
09:35	13.5	13.5	13.5	59	1.9	1	5	292	0.00	30.554 
09:40	13.6	13.6	13.6	59	2.0	0	3	112	0.00	30.554 
09:45	14.0	14.0	14.0	58	2.0	0	2	112	0.00	30.547 
09:50	14.1	14.1	14.1	58	2.1	0	1	112	0.00	30.547 
09:55	14.6	14.6	14.6	57	2.2	0	1	112	0.00	30.547 
10:00	14.8	14.8	14.8	55	1.6	0	2	112	0.00	30.540 
10:05	14.8	14.8	14.8	55	1.6	0	2	112	0.00	30.540 
10:10	14.9	14.9	14.9	54	1.3	1	3	112	0.00	30.540 
10:15	14.9	14.9	14.9	53	0.9	1	3	270	0.00	30.542 
10:20	15.2	15.2	15.2	53	1.2	0	2	248	0.00	30.542 
10:25	15.6	15.6	15.6	54	2.0	0	5	248	0.00	30.542 
10:30	15.7	15.7	15.7	51	0.8	1	4	248	0.00	30.535 
10:35	16.1	16.1	16.1	52	1.6	1	3	270	0.00	30.535 
10:40	16.1	16.1	16.1	52	1.6	0	3	248	0.00	30.535 
10:45	16.4	16.4	16.4	52	1.9	0	2	248	0.00	30.535 
10:50	16.7	16.7	16.7	52	2.2	0	2	248	0.00	30.535 
10:55	17.2	17.2	17.2	52	2.6	1	2	248	0.00	30.535 
11:00	17.5	17.5	17.5	51	2.5	1	3	248	0.00	30.531 
11:05	17.8	17.8	17.8	51	2.8	1	3	248	0.00	30.531 
11:10	17.8	17.8	17.8	51	2.8	1	4	270	0.00	30.531 
11:15	18.0	18.0	18.0	51	3.0	1	7	270	0.00	30.522 
11:20	18.1	18.1	18.1	52	3.5	1	3	248	0.00	30.522 
11:25	18.1	18.1	18.1	51	3.1	2	6	248	0.00	30.522 
11:30	17.8	17.8	17.8	51	2.8	1	5	248	0.00	30.520 
11:35	18.0	18.0	18.0	53	3.8	1	3	248	0.00	30.520 
11:40	18.6	18.6	18.6	52	3.9	1	6	248	0.00	30.520 
11:45	18.8	18.8	18.8	51	3.7	2	6	270	0.00	30.518 
11:50	18.6	18.6	18.6	51	3.5	2	6	248	0.00	30.518 
11:55	18.9	18.9	18.9	52	4.2	1	5	270	0.00	30.518 
12:00	19.2	19.2	19.2	50	3.6	2	6	248	0.00	30.509 
12:05	19.5	19.5	19.5	50	3.9	1	4	248	0.00	30.509 
12:10	19.9	19.9	19.9	51	4.7	1	4	248	0.00	30.509 
12:15	20.5	20.5	20.5	52	5.7	1	3	248	0.00	30.502 
12:20	21.0	21.0	21.0	51	5.7	1	4	248	0.00	30.502 
12:25	20.8	20.8	20.8	50	5.1	1	5	248	0.00	30.502 
12:30	21.0	21.0	21.0	50	5.3	1	5	248	0.00	30.496 
12:35	21.1	21.1	21.1	49	5.0	2	6	248	0.00	30.496 
12:40	21.3	21.3	21.3	50	5.6	1	4	270	0.00	30.496 
12:45	21.6	21.6	21.6	50	5.9	1	5	248	0.00	30.481 
12:50	21.8	21.8	21.8	50	6.1	2	6	248	0.00	30.481 
12:55	22.2	22.2	22.2	51	6.9	1	6	270	0.00	30.481 
13:00	22.7	22.7	22.7	51	7.3	1	3	248	0.00	30.471 
13:05	22.5	22.5	22.5	48	5.8	2	6	248	0.00	30.471 
13:10	22.4	22.4	22.4	50	6.6	1	5	248	0.00	30.471 
13:15	22.7	22.7	22.7	49	6.4	2	6	248	0.00	30.459 
13:20	23.0	23.0	23.0	50	7.2	2	5	248	0.00	30.459 
13:25	23.2	23.2	23.2	50	7.4	2	7	248	0.00	30.459 
13:30	23.3	23.3	23.3	50	7.4	1	5	248	0.00	30.445 
13:35	23.5	23.5	23.5	52	8.5	2	13	112	0.00	30.445 
13:40	23.9	23.9	23.9	48	7.1	1	5	248	0.00	30.445 
13:45	23.8	23.8	23.8	45	5.6	2	9	248	0.00	30.438 
13:50	23.5	23.5	23.5	46	5.8	2	5	248	0.00	30.438 
13:55	23.5	23.5	23.5	48	6.7	2	6	248	0.00	30.438 
14:00	23.9	23.9	23.9	49	7.6	1	4	248	0.00	30.427 
14:05	24.4	24.4	24.4	49	8.0	1	6	68	0.00	30.427 
14:10	24.7	24.7	24.7	45	6.4	2	6	248	0.00	30.427 
14:15	24.5	24.5	24.5	44	5.7	3	7	248	0.00	30.416 
14:20	24.5	24.5	24.5	46	6.7	1	5	248	0.00	30.416 
14:25	24.5	24.5	24.5	44	5.7	2	5	248	0.00	30.416 
14:30	24.2	24.2	24.2	46	6.4	2	7	248	0.00	30.414 
14:35	24.4	24.4	24.4	46	6.6	1	5	248	0.00	30.414 
14:40	24.5	24.5	24.5	46	6.7	2	7	248	0.00	30.414 
14:45	24.5	24.5	24.5	46	6.7	1	5	248	0.00	30.408 
14:50	24.8	24.8	24.8	47	7.5	0	4	248	0.00	30.408 
14:55	25.3	25.3	25.3	47	7.9	0	3	270	0.00	30.408 
15:00	25.3	25.3	25.3	47	7.9	0	4	270	0.00	30.399 
15:05	25.3	25.3	25.3	48	8.4	1	6	248	0.00	30.399 
15:10	25.4	25.4	25.4	46	7.5	1	5	270	0.00	30.399 
15:15	25.3	25.3	25.3	47	7.9	1	5	270	0.00	30.391 
15:20	25.6	25.6	25.6	47	8.2	1	4	270	0.00	30.391 
15:25	25.7	25.7	25.7	47	8.3	1	4	225	0.00	30.391 
15:30	25.8	25.8	25.8	49	9.3	1	5	68	0.00	30.382 
15:35	25.4	25.4	25.4	49	8.9	1	6	90	0.00	30.382 
15:40	25.6	25.6	25.6	49	9.1	1	4	248	0.00	30.382 
15:45	25.6	25.6	25.6	48	8.7	1	6	248	0.00	30.375 
15:50	25.6	25.6	25.6	48	8.7	1	4	248	0.00	30.375 
15:55	25.0	25.0	25.0	50	9.0	2	9	90	0.00	30.375 
16:00	24.7	24.7	24.7	51	9.2	1	5	90	0.00	30.373 
16:05	24.7	24.7	24.7	50	8.7	1	6	248	0.00	30.373 
16:10	24.8	24.8	24.8	49	8.4	2	5	90	0.00	30.373 
16:15	24.5	24.5	24.5	50	8.6	2	5	112	0.00	30.363 
16:20	24.2	24.2	24.2	50	8.3	2	7	90	0.00	30.363 
16:25	24.5	24.5	24.5	49	8.1	1	4	248	0.00	30.363 
16:30	24.7	24.7	24.7	49	8.3	1	5	248	0.00	30.357 
16:35	24.8	24.8	24.8	50	8.8	1	4	270	0.00	30.357 
16:40	24.8	24.8	24.8	50	8.8	0	2	90	0.00	30.357 
16:45	24.8	24.8	24.8	50	8.8	1	3	270	0.00	30.351 
16:50	24.8	24.8	24.8	50	8.8	1	5	248	0.00	30.351 
16:55	25.0	25.0	25.0	49	8.6	1	4	248	0.00	30.351 
17:00	24.8	24.8	24.8	49	8.4	1	10	90	0.00	30.342 
17:05	24.7	24.7	24.7	50	8.7	1	4	292	0.00	30.342 
17:10	24.8	24.8	24.8	50	8.8	1	3	270	0.00	30.342 
17:15	24.8	24.8	24.8	50	8.8	1	3	270	0.00	30.337 
17:20	24.8	24.8	24.8	50	8.8	1	4	0	0.00	30.337 
17:25	24.5	24.5	24.5	50	8.6	2	9	90	0.00	30.337 
17:30	24.4	24.4	24.4	50	8.5	2	6	90	0.00	30.330 
17:35	24.4	24.4	24.4	51	8.9	0	3	270	0.00	30.330 
17:40	24.4	24.4	24.4	52	9.3	1	4	270	0.00	30.330 
17:45	24.1	24.1	24.1	53	9.5	1	3	112	0.00	30.328 
17:50	24.1	24.1	24.1	53	9.5	2	7	112	0.00	30.328 
17:55	23.9	23.9	23.9	54	9.7	1	4	112	0.00	30.328 
18:00	23.9	23.9	23.9	54	9.7	1	4	270	0.00	30.313 
18:05	23.9	23.9	23.9	54	9.7	1	3	270	0.00	30.313 
18:10	23.8	23.8	23.8	54	9.6	1	4	292	0.00	30.313 
18:15	23.8	23.8	23.8	55	10.0	1	3	90	0.00	30.309 
18:20	23.6	23.6	23.6	55	9.8	1	4	90	0.00	30.309 
18:25	23.6	23.6	23.6	56	10.2	0	1	90	0.00	30.309 
18:30	23.5	23.5	23.5	56	10.1	1	6	0	0.00	30.315 
18:35	23.2	23.2	23.2	57	10.3	1	4	90	0.00	30.315 
18:40	23.2	23.2	23.2	56	9.9	1	3	90	0.00	30.315 
18:45	23.0	23.0	23.0	56	9.7	1	4	270	0.00	30.316 
18:50	23.0	23.0	23.0	57	10.1	1	6	90	0.00	30.316 
18:55	22.9	22.9	22.9	57	10.0	0	3	90	0.00	30.316 
19:00	22.9	22.9	22.9	57	10.0	0	3	90	0.00	30.316 
19:05	22.7	22.7	22.7	58	10.2	0	2	68	0.00	30.316 
19:10	22.5	22.5	22.5	58	10.0	0	5	68	0.00	30.316 
19:15	22.4	22.4	22.4	58	9.9	0	2	90	0.00	30.308 
19:20	22.2	22.2	22.2	59	10.1	0	1	90	0.00	30.308 
19:25	22.1	22.1	22.1	59	10.0	0	2	90	0.00	30.308 
19:30	22.1	22.1	22.1	59	10.0	0	2	90	0.00	30.310 
19:35	21.9	21.9	21.9	60	10.2	0	2	45	0.00	30.310 
19:40	21.9	21.9	21.9	60	10.2	0	2	270	0.00	30.310 
19:45	21.8	21.8	21.8	60	10.1	0	1	270	0.00	30.301 
19:50	21.8	21.8	21.8	60	10.1	0	2	270	0.00	30.301 
19:55	21.8	21.8	21.8	60	10.1	0	1	270	0.00	30.301 
20:00	21.8	21.8	21.8	61	10.4	0	2	270	0.00	30.303 
20:05	21.6	21.6	21.6	61	10.3	0	2	270	0.00	30.303 
20:10	21.8	21.8	21.8	61	10.4	1	4	248	0.00	30.303 
20:15	21.8	21.8	21.8	61	10.4	0	2	248	0.00	30.295 
20:20	21.9	21.9	21.9	61	10.5	0	3	248	0.00	30.295 
20:25	21.9	21.9	21.9	61	10.5	1	4	248	0.00	30.295 
20:30	22.1	22.1	22.1	60	10.4	0	2	248	0.00	30.294 
20:35	21.9	21.9	21.9	61	10.5	0	2	248	0.00	30.294 
20:40	21.9	21.9	21.9	60	10.2	0	2	248	0.00	30.294 
20:45	21.9	21.9	21.9	61	10.5	0	2	248	0.00	30.293 
20:50	21.9	21.9	21.9	61	10.5	0	2	248	0.00	30.293 
20:55	21.9	21.9	21.9	61	10.5	0	2	248	0.00	30.293 
21:00	21.9	21.9	21.9	61	10.5	0	2	248	0.00	30.291 
21:05	21.9	21.9	21.9	61	10.5	0	3	248	0.00	30.291 
21:10	21.9	21.9	21.9	61	10.5	1	3	248	0.00	30.291 
21:15	21.9	21.9	21.9	61	10.5	1	3	248	0.00	30.285 
21:20	21.9	21.9	21.9	61	10.5	0	3	248	0.00	30.285 
21:25	21.9	21.9	21.9	61	10.5	1	3	248	0.00	30.285 
21:30	21.8	21.8	21.8	61	10.4	0	3	248	0.00	30.285 
21:35	21.8	21.8	21.8	61	10.4	1	3	248	0.00	30.285 
21:40	21.8	21.8	21.8	61	10.4	0	2	248	0.00	30.285 
21:45	21.6	21.6	21.6	62	10.6	0	2	248	0.00	30.286 
21:50	21.6	21.6	21.6	62	10.6	0	3	248	0.00	30.286 
21:55	21.6	21.6	21.6	62	10.6	0	3	248	0.00	30.286 
22:00	21.6	21.6	21.6	62	10.6	1	3	248	0.00	30.286 
22:05	21.6	21.6	21.6	62	10.6	0	3	248	0.00	30.286 
22:10	21.6	21.6	21.6	62	10.6	0	2	248	0.00	30.286 
22:15	21.6	21.6	21.6	62	10.6	1	3	248	0.00	30.275 
22:20	21.6	21.6	21.6	62	10.6	1	3	248	0.00	30.275 
22:25	21.6	21.6	21.6	63	11.0	0	2	248	0.00	30.275 
22:30	21.6	21.6	21.6	63	11.0	1	4	248	0.00	30.271 
22:35	21.6	21.6	21.6	63	11.0	1	2	248	0.00	30.271 
22:40	21.4	21.4	21.4	63	10.8	0	3	248	0.00	30.271 
22:45	21.4	21.4	21.4	63	10.8	1	3	248	0.00	30.271 
22:50	21.4	21.4	21.4	64	11.1	0	3	248	0.00	30.271 
22:55	21.3	21.3	21.3	64	11.0	0	4	248	0.00	30.271 
23:00	21.3	21.3	21.3	64	11.0	1	4	248	0.00	30.270 
23:05	21.3	21.3	21.3	64	11.0	1	3	248	0.00	30.270 
23:10	21.3	21.3	21.3	64	11.0	1	3	248	0.00	30.270 
23:15	21.4	21.4	21.4	63	10.8	1	4	248	0.00	30.263 
23:20	21.4	21.4	21.4	63	10.8	1	3	248	0.00	30.263 
23:25	21.4	21.4	21.4	63	10.8	0	2	248	0.00	30.263 
23:30	21.3	21.3	21.3	63	10.7	0	3	248	0.00	30.253 
23:35	21.3	21.3	21.3	62	10.3	1	3	248	0.00	30.253 
23:40	21.4	21.4	21.4	62	10.4	1	4	248	0.00	30.253 
23:45	21.4	21.4	21.4	62	10.4	1	2	248	0.00	30.251 
23:50	21.3	21.3	21.3	62	10.3	1	3	248	0.00	30.251 
23:55	21.3	21.3	21.3	62	10.3	1	3	248	0.00	30.251 

CoCoRaHS
IN-AL-39
A2 Web Hosting
Creative Commons License
GoDaddy
search engine by freefind advanced

loaded 2018-11-19 18:43:55 • last modified 2010-11-18 10:43:29
Privacy PolicyDisclaimer
• wx.awcolley.com is powered by PmWiki v.2002016 •
• all content (unless otherwise noted) © 2018 A W Colley